Mestre Silva — CUFZ5 — position and weather

sailwx.info

Track history (hours):
 
Tides and Currents Weather Stations Pressure Air Temp Water Temp Dewpoint Dewpoint Depression Visibility Wind Speed Wind Dir Waves Ship Positions

Mestre Silva

Last reported at 2017-Oct-19 18:30 UTC. Time now 2017-Oct-19 18:33 UTC.
Position N 41°11' W 008°42'.

Length 12 m.

Type: Fishing. MMSI: 263420860.

Date/timePositionNaut miles runAvg speedWind from/ knotsBaromVisibWave heightAir tempDewpointWater temp
2017-Oct-19 18:30N 41°11' W 008°42'0 0.0
2017-Oct-19 18:00N 41°11' W 008°42'0 0.0
2017-Oct-19 17:30N 41°11' W 008°42'0 0.0
2017-Oct-19 17:00N 41°11' W 008°42'0 0.0
2017-Oct-19 16:30N 41°11' W 008°42'0 0.0
2017-Oct-19 16:00N 41°11' W 008°42'0 0.0
2017-Oct-19 15:30N 41°11' W 008°42'0 0.0
2017-Oct-19 15:00N 41°11' W 008°42'0 0.0
2017-Oct-19 14:30N 41°11' W 008°42'0 0.1
2017-Oct-19 14:00N 41°11' W 008°42'2 4.0
2017-Oct-19 13:30N 41°10' W 008°44'4 0.2
2017-Oct-18 20:14N 41°06' W 008°46'1 6.0
2017-Oct-18 20:01N 41°07' W 008°45'3 6.1
2017-Oct-18 19:31N 41°10' W 008°43'2 3.1
2017-Oct-18 19:01N 41°11' W 008°42'0 0.0
2017-Oct-18 18:31N 41°11' W 008°42'0 0.0
2017-Oct-18 18:01N 41°11' W 008°42'0 0.0
2017-Oct-18 17:31N 41°11' W 008°42'0 0.0
2017-Oct-18 17:01N 41°11' W 008°42'0 0.0
2017-Oct-18 16:30N 41°11' W 008°42'0 0.0
2017-Oct-18 16:01N 41°11' W 008°42'0 0.0
2017-Oct-18 15:31N 41°11' W 008°42'0 0.0
2017-Oct-18 15:01N 41°11' W 008°42'0 0.0
2017-Oct-18 14:01N 41°11' W 008°42'2 4.9
2017-Oct-18 13:30N 41°09' W 008°44'2 0.1
2017-Oct-17 20:40N 41°08' W 008°47'1 5.7
2017-Oct-17 20:28N 41°09' W 008°45'3 5.9
2017-Oct-17 20:00N 41°10' W 008°42'1 1.6
2017-Oct-17 19:30N 41°11' W 008°42'0 0.0
2017-Oct-17 19:00N 41°11' W 008°42'0 0.0
2017-Oct-17 18:30N 41°11' W 008°42'0 0.0
2017-Oct-17 18:00N 41°11' W 008°42'0 0.0
2017-Oct-17 17:30N 41°11' W 008°42'0 0.0
2017-Oct-17 17:00N 41°11' W 008°42'0 0.0
2017-Oct-17 16:30N 41°11' W 008°42'0 0.0
2017-Oct-17 16:00N 41°11' W 008°42'0 0.0
2017-Oct-17 15:30N 41°11' W 008°42'0 0.0
2017-Oct-17 15:00N 41°11' W 008°42'0 0.0
2017-Oct-17 14:30N 41°11' W 008°42'0 0.0
2017-Oct-17 14:00N 41°11' W 008°42'0 0.0
2017-Oct-17 13:30N 41°11' W 008°42'0 0.0
2017-Oct-17 13:00N 41°11' W 008°42'0 0.0
2017-Oct-17 12:30N 41°11' W 008°42'2 3.7
2017-Oct-17 12:00N 41°09' W 008°43'2 0.1
2017-Oct-16 13:29N 41°08' W 008°42'3 6.4
2017-Oct-16 13:01N 41°11' W 008°42'0 0.0
2017-Oct-15 09:41N 41°11' W 008°42'0 0.0
2017-Oct-15 09:30N 41°11' W 008°42'0 0.0
2017-Oct-13 11:54N 41°11' W 008°42'0 0.0
2017-Oct-13 11:31N 41°11' W 008°42'2 3.6
2017-Oct-13 11:01N 41°10' W 008°44'4 0.3
2017-Oct-12 20:10N 41°06' W 008°46'1 6.9
2017-Oct-12 20:00N 41°07' W 008°45'3 7.0
2017-Oct-12 19:30N 41°10' W 008°43'1 1.9
2017-Oct-12 19:01N 41°11' W 008°42'0 0.0
2017-Oct-12 18:31N 41°11' W 008°42'0 0.0
2017-Oct-12 18:00N 41°11' W 008°42'0 0.0
2017-Oct-12 17:30N 41°11' W 008°42'0 0.0
2017-Oct-12 17:00N 41°11' W 008°42'0 0.0
2017-Oct-12 16:30N 41°11' W 008°42'0 0.0
2017-Oct-12 16:00N 41°11' W 008°42'0 0.0
2017-Oct-12 15:30N 41°11' W 008°42'0 0.0
2017-Oct-12 15:00N 41°11' W 008°42'0 0.0
2017-Oct-12 14:30N 41°11' W 008°42'0 0.0
2017-Oct-12 14:00N 41°11' W 008°42'0 0.0
2017-Oct-12 13:30N 41°11' W 008°42'0 0.0
2017-Oct-12 13:00N 41°11' W 008°42'0 0.0
2017-Oct-12 12:30N 41°11' W 008°42'1 2.5
2017-Oct-12 12:00N 41°10' W 008°43'3 6.4
2017-Oct-12 11:30N 41°09' W 008°47'2 0.1
2017-Oct-11 20:42N 41°07' W 008°45'1 7.5
2017-Oct-11 20:30N 41°08' W 008°44'3 6.1
2017-Oct-11 20:00N 41°11' W 008°42'0 0.0
2017-Oct-11 19:30N 41°11' W 008°42'0 0.0
2017-Oct-11 19:00N 41°11' W 008°42'0 0.0
2017-Oct-11 18:30N 41°11' W 008°42'0 0.0
2017-Oct-11 18:00N 41°11' W 008°42'0 0.0
2017-Oct-11 17:30N 41°11' W 008°42'0 0.0
2017-Oct-11 17:00N 41°11' W 008°42'5 0.2
2017-Oct-10 19:48N 41°07' W 008°46'2 6.9
2017-Oct-10 19:31N 41°08' W 008°44'3 6.1
2017-Oct-10 19:00N 41°11' W 008°42'0 0.0
2017-Oct-10 18:31N 41°11' W 008°42'0 0.0
2017-Oct-10 18:01N 41°11' W 008°42'0 0.0
2017-Oct-10 17:31N 41°11' W 008°42'0 0.0
2017-Oct-10 17:01N 41°11' W 008°42'0 0.0
2017-Oct-10 16:31N 41°11' W 008°42'0 0.0
2017-Oct-10 16:00N 41°11' W 008°42'0 0.0
2017-Oct-10 15:31N 41°11' W 008°42'0 0.0
2017-Oct-10 15:01N 41°11' W 008°42'0 0.0
2017-Oct-10 14:01N 41°11' W 008°42'0 0.2
2017-Oct-10 13:31N 41°11' W 008°42'3 6.9
2017-Oct-10 13:01N 41°08' W 008°45'1 0.0
2017-Oct-09 19:16N 41°08' W 008°45'2 6.8
2017-Oct-09 19:00N 41°09' W 008°44'3 5.1
2017-Oct-09 18:30N 41°11' W 008°42'  
Track history (hours):
 
Tides and Currents Weather Stations Pressure Air Temp Water Temp Dewpoint Dewpoint Depression Visibility Wind Speed Wind Dir Waves Ship Positions

Mestre Silva

Last reported at 2017-Oct-19 18:30 UTC. Time now 2017-Oct-19 18:33 UTC.
Position N 41°11' W 008°42'.

Length 12 m.

Type: Fishing. MMSI: 263420860.

Date/timePositionNaut miles runAvg speedWind from/ knotsBaromVisibWave heightAir tempDewpointWater temp
2017-Oct-19 18:30N 41°11' W 008°42'0 0.0
2017-Oct-19 18:00N 41°11' W 008°42'0 0.0
2017-Oct-19 17:30N 41°11' W 008°42'0 0.0
2017-Oct-19 17:00N 41°11' W 008°42'0 0.0
2017-Oct-19 16:30N 41°11' W 008°42'0 0.0
2017-Oct-19 16:00N 41°11' W 008°42'0 0.0
2017-Oct-19 15:30N 41°11' W 008°42'0 0.0
2017-Oct-19 15:00N 41°11' W 008°42'0 0.0
2017-Oct-19 14:30N 41°11' W 008°42'0 0.1
2017-Oct-19 14:00N 41°11' W 008°42'2 4.0
2017-Oct-19 13:30N 41°10' W 008°44'4 0.2
2017-Oct-18 20:14N 41°06' W 008°46'1 6.0
2017-Oct-18 20:01N 41°07' W 008°45'3 6.1
2017-Oct-18 19:31N 41°10' W 008°43'2 3.1
2017-Oct-18 19:01N 41°11' W 008°42'0 0.0
2017-Oct-18 18:31N 41°11' W 008°42'0 0.0
2017-Oct-18 18:01N 41°11' W 008°42'0 0.0
2017-Oct-18 17:31N 41°11' W 008°42'0 0.0
2017-Oct-18 17:01N 41°11' W 008°42'0 0.0
2017-Oct-18 16:30N 41°11' W 008°42'0 0.0
2017-Oct-18 16:01N 41°11' W 008°42'0 0.0
2017-Oct-18 15:31N 41°11' W 008°42'0 0.0
2017-Oct-18 15:01N 41°11' W 008°42'0 0.0
2017-Oct-18 14:01N 41°11' W 008°42'2 4.9
2017-Oct-18 13:30N 41°09' W 008°44'2 0.1
2017-Oct-17 20:40N 41°08' W 008°47'1 5.7
2017-Oct-17 20:28N 41°09' W 008°45'3 5.9
2017-Oct-17 20:00N 41°10' W 008°42'1 1.6
2017-Oct-17 19:30N 41°11' W 008°42'0 0.0
2017-Oct-17 19:00N 41°11' W 008°42'0 0.0
2017-Oct-17 18:30N 41°11' W 008°42'0 0.0
2017-Oct-17 18:00N 41°11' W 008°42'0 0.0
2017-Oct-17 17:30N 41°11' W 008°42'0 0.0
2017-Oct-17 17:00N 41°11' W 008°42'0 0.0
2017-Oct-17 16:30N 41°11' W 008°42'0 0.0
2017-Oct-17 16:00N 41°11' W 008°42'0 0.0
2017-Oct-17 15:30N 41°11' W 008°42'0 0.0
2017-Oct-17 15:00N 41°11' W 008°42'0 0.0
2017-Oct-17 14:30N 41°11' W 008°42'0 0.0
2017-Oct-17 14:00N 41°11' W 008°42'0 0.0
2017-Oct-17 13:30N 41°11' W 008°42'0 0.0
2017-Oct-17 13:00N 41°11' W 008°42'0 0.0
2017-Oct-17 12:30N 41°11' W 008°42'2 3.7
2017-Oct-17 12:00N 41°09' W 008°43'2 0.1
2017-Oct-16 13:29N 41°08' W 008°42'3 6.4
2017-Oct-16 13:01N 41°11' W 008°42'0 0.0
2017-Oct-15 09:41N 41°11' W 008°42'0 0.0
2017-Oct-15 09:30N 41°11' W 008°42'0 0.0
2017-Oct-13 11:54N 41°11' W 008°42'0 0.0
2017-Oct-13 11:31N 41°11' W 008°42'2 3.6
2017-Oct-13 11:01N 41°10' W 008°44'4 0.3
2017-Oct-12 20:10N 41°06' W 008°46'1 6.9
2017-Oct-12 20:00N 41°07' W 008°45'3 7.0
2017-Oct-12 19:30N 41°10' W 008°43'1 1.9
2017-Oct-12 19:01N 41°11' W 008°42'0 0.0
2017-Oct-12 18:31N 41°11' W 008°42'0 0.0
2017-Oct-12 18:00N 41°11' W 008°42'0 0.0
2017-Oct-12 17:30N 41°11' W 008°42'0 0.0
2017-Oct-12 17:00N 41°11' W 008°42'0 0.0
2017-Oct-12 16:30N 41°11' W 008°42'0 0.0
2017-Oct-12 16:00N 41°11' W 008°42'0 0.0
2017-Oct-12 15:30N 41°11' W 008°42'0 0.0
2017-Oct-12 15:00N 41°11' W 008°42'0 0.0
2017-Oct-12 14:30N 41°11' W 008°42'0 0.0
2017-Oct-12 14:00N 41°11' W 008°42'0 0.0
2017-Oct-12 13:30N 41°11' W 008°42'0 0.0
2017-Oct-12 13:00N 41°11' W 008°42'0 0.0
2017-Oct-12 12:30N 41°11' W 008°42'1 2.5
2017-Oct-12 12:00N 41°10' W 008°43'3 6.4
2017-Oct-12 11:30N 41°09' W 008°47'2 0.1
2017-Oct-11 20:42N 41°07' W 008°45'1 7.5
2017-Oct-11 20:30N 41°08' W 008°44'3 6.1
2017-Oct-11 20:00N 41°11' W 008°42'0 0.0
2017-Oct-11 19:30N 41°11' W 008°42'0 0.0
2017-Oct-11 19:00N 41°11' W 008°42'0 0.0
2017-Oct-11 18:30N 41°11' W 008°42'0 0.0
2017-Oct-11 18:00N 41°11' W 008°42'0 0.0
2017-Oct-11 17:30N 41°11' W 008°42'0 0.0
2017-Oct-11 17:00N 41°11' W 008°42'5 0.2
2017-Oct-10 19:48N 41°07' W 008°46'2 6.9
2017-Oct-10 19:31N 41°08' W 008°44'3 6.1
2017-Oct-10 19:00N 41°11' W 008°42'0 0.0
2017-Oct-10 18:31N 41°11' W 008°42'0 0.0
2017-Oct-10 18:01N 41°11' W 008°42'0 0.0
2017-Oct-10 17:31N 41°11' W 008°42'0 0.0
2017-Oct-10 17:01N 41°11' W 008°42'0 0.0
2017-Oct-10 16:31N 41°11' W 008°42'0 0.0
2017-Oct-10 16:00N 41°11' W 008°42'0 0.0
2017-Oct-10 15:31N 41°11' W 008°42'0 0.0
2017-Oct-10 15:01N 41°11' W 008°42'0 0.0
2017-Oct-10 14:01N 41°11' W 008°42'0 0.2
2017-Oct-10 13:31N 41°11' W 008°42'3 6.9
2017-Oct-10 13:01N 41°08' W 008°45'1 0.0
2017-Oct-09 19:16N 41°08' W 008°45'2 6.8
2017-Oct-09 19:00N 41°09' W 008°44'3 5.1
2017-Oct-09 18:30N 41°11' W 008°42'  

Dump ship's entire track history